Time;durP1;ratioP1;P1;durP2;ratioP2;P2;SDS_P1;SDS_P2;PMS_P1;PMS_P2;Temp;Humidity;BMP_temperature;BMP_pressure;BME280_temperature;BME280_humidity;BME280_pressure;Samples;Min_cycle;Max_cycle;Signal;HPM_P1;HPM_P2
2023/04/20 00:01:40;;;;;;;4.97;3.58;;;6.40;68.40;;;;;;5029964;28;20033;-77
2023/04/20 00:04:06;;;;;;;4.57;2.92;;;6.50;69.20;;;;;;5017368;28;20564;-78
2023/04/20 00:06:33;;;;;;;11.10;3.38;;;6.40;69.40;;;;;;5004226;28;20030;-77
2023/04/20 00:08:59;;;;;;;5.05;2.55;;;6.20;68.50;;;;;;5013898;28;20022;-79
2023/04/20 00:11:26;;;;;;;5.13;3.28;;;6.30;68.90;;;;;;5005934;28;20042;-77
2023/04/20 00:13:51;;;;;;;6.32;3.92;;;6.40;69.20;;;;;;5008207;28;20041;-76
2023/04/20 00:16:17;;;;;;;5.78;3.35;;;6.40;69.40;;;;;;5007133;28;20532;-77
2023/04/20 00:18:45;;;;;;;7.35;3.38;;;6.40;68.90;;;;;;5023263;28;20038;-77
2023/04/20 00:21:10;;;;;;;5.10;2.85;;;6.40;69.30;;;;;;5028915;28;20448;-77
2023/04/20 00:23:36;;;;;;;5.35;2.75;;;6.40;69.20;;;;;;5000822;28;20033;-77
2023/04/20 00:26:01;;;;;;;4.13;2.45;;;6.40;69.60;;;;;;5015637;28;20500;-77
2023/04/20 00:28:27;;;;;;;10.05;3.42;;;6.40;71.90;;;;;;5020256;28;20211;-77
2023/04/20 00:30:52;;;;;;;12.00;3.10;;;6.40;70.50;;;;;;5034454;28;20033;-76
2023/04/20 00:33:18;;;;;;;7.85;2.95;;;6.30;70.10;;;;;;5013908;28;20053;-77
2023/04/20 00:35:44;;;;;;;6.18;3.20;;;6.30;70.40;;;;;;5004322;28;20038;-77
2023/04/20 00:38:09;;;;;;;4.70;2.83;;;6.30;70.40;;;;;;5003319;28;20048;-77
2023/04/20 00:40:35;;;;;;;5.30;3.35;;;6.30;69.60;;;;;;5006588;28;20029;-77
2023/04/20 00:43:10;;;;;;;6.53;3.30;;;6.30;71.30;;;;;;5016963;28;20514;-77
2023/04/20 00:45:36;;;;;;;7.60;3.60;;;6.30;71.50;;;;;;4996915;28;20038;-77
2023/04/20 00:48:02;;;;;;;5.18;3.38;;;6.40;71.00;;;;;;5001253;28;20109;-76
2023/04/20 00:50:27;;;;;;;6.22;3.67;;;5.90;70.40;;;;;;5003011;28;20065;-76
2023/04/20 00:52:53;;;;;;;11.52;3.65;;;6.10;71.10;;;;;;5015537;28;20100;-78
2023/04/20 00:55:19;;;;;;;5.82;3.20;;;6.10;72.00;;;;;;5024488;28;20630;-78
2023/04/20 00:57:44;;;;;;;4.60;2.83;;;6.10;70.60;;;;;;5018131;28;20128;-78
2023/04/20 01:00:10;;;;;;;6.38;3.15;;;6.00;72.40;;;;;;5001149;28;20555;-78
2023/04/20 01:02:36;;;;;;;5.25;3.22;;;5.90;72.30;;;;;;5001666;28;20031;-79
2023/04/20 01:05:02;;;;;;;5.70;3.15;;;5.90;72.70;;;;;;5001836;28;20389;-78
2023/04/20 01:07:28;;;;;;;5.95;3.20;;;5.90;73.10;;;;;;5006042;28;20026;-78
2023/04/20 01:09:55;;;;;;;5.50;3.53;;;5.80;72.00;;;;;;5016941;28;20046;-78
2023/04/20 01:12:20;;;;;;;7.80;4.07;;;5.80;72.90;;;;;;5015924;28;20071;-78
2023/04/20 01:14:46;;;;;;;5.82;3.03;;;5.70;71.70;;;;;;5006622;28;20494;-78
2023/04/20 01:17:13;;;;;;;9.40;4.13;;;5.60;73.10;;;;;;5032626;28;20108;-78
2023/04/20 01:19:40;;;;;;;9.90;2.95;;;5.70;73.50;;;;;;5017142;28;20422;-78
2023/04/20 01:22:06;;;;;;;4.07;2.60;;;5.60;73.00;;;;;;5002005;28;20033;-79
2023/04/20 01:24:32;;;;;;;5.78;3.25;;;5.60;72.50;;;;;;5013454;28;20056;-78
2023/04/20 01:26:58;;;;;;;6.22;2.88;;;5.60;73.00;;;;;;5016255;28;20641;-78
2023/04/20 01:29:23;;;;;;;5.28;2.50;;;5.40;74.20;;;;;;5005106;28;20041;-78
2023/04/20 01:31:49;;;;;;;4.55;2.75;;;5.50;73.20;;;;;;5015100;28;20039;-78
2023/04/20 01:34:16;;;;;;;5.72;2.90;;;5.50;73.90;;;;;;5001352;28;20144;-78
2023/04/20 01:36:42;;;;;;;5.57;2.97;;;5.50;74.20;;;;;;5015397;28;20117;-78
2023/04/20 01:39:08;;;;;;;6.38;3.65;;;5.40;73.70;;;;;;5033263;28;20033;-78
2023/04/20 01:41:34;;;;;;;5.97;2.63;;;5.50;75.10;;;;;;4996130;28;20406;-78
2023/04/20 01:43:59;;;;;;;8.13;3.00;;;5.30;75.70;;;;;;5018007;28;20025;-79
2023/04/20 01:46:25;;;;;;;3.78;2.47;;;5.40;76.20;;;;;;5002868;28;20037;-78
2023/04/20 01:48:50;;;;;;;10.77;3.28;;;5.40;76.00;;;;;;5022083;28;20022;-78
2023/04/20 01:51:16;;;;;;;6.72;2.63;;;5.50;75.50;;;;;;5018403;28;20048;-78
2023/04/20 01:53:41;;;;;;;5.35;2.42;;;5.50;75.00;;;;;;5032555;28;20441;-79
2023/04/20 01:56:07;;;;;;;8.35;3.08;;;5.60;74.30;;;;;;5000753;28;20041;-78
2023/04/20 01:58:33;;;;;;;4.45;2.38;;;5.70;76.00;;;;;;5007306;28;20041;-79
2023/04/20 02:01:01;;;;;;;4.53;3.00;;;5.60;76.90;;;;;;5019785;28;20421;-78
2023/04/20 02:03:26;;;;;;;9.38;3.10;;;5.60;76.60;;;;;;5004235;28;20757;-78
2023/04/20 02:05:53;;;;;;;4.47;2.67;;;5.60;76.80;;;;;;5019077;28;20038;-78
2023/04/20 02:08:19;;;;;;;5.15;2.83;;;5.60;77.40;;;;;;5005763;28;20052;-78
2023/04/20 02:10:45;;;;;;;7.30;2.92;;;5.70;76.60;;;;;;5008055;28;20379;-78
2023/04/20 02:13:10;;;;;;;5.50;3.75;;;5.70;77.30;;;;;;5019347;28;20099;-78
2023/04/20 02:15:36;;;;;;;7.30;3.15;;;5.80;78.10;;;;;;5014174;28;20048;-78
2023/04/20 02:18:02;;;;;;;5.93;2.75;;;5.80;78.40;;;;;;5005465;28;20038;-78
2023/04/20 02:20:27;;;;;;;3.42;2.53;;;5.80;79.90;;;;;;4992256;28;20060;-78
2023/04/20 02:22:53;;;;;;;5.50;2.70;;;5.80;79.10;;;;;;5003719;28;20033;-78
2023/04/20 02:25:19;;;;;;;5.05;3.22;;;5.80;79.00;;;;;;5021520;28;20038;-78
2023/04/20 02:27:45;;;;;;;8.23;2.92;;;5.90;79.30;;;;;;5015823;28;20065;-78
2023/04/20 02:30:11;;;;;;;5.55;2.60;;;5.90;79.30;;;;;;5000766;28;20135;-80
2023/04/20 02:32:36;;;;;;;7.00;2.60;;;5.90;80.60;;;;;;5012558;28;20030;-81
2023/04/20 02:35:03;;;;;;;12.38;3.42;;;6.00;81.60;;;;;;5014027;28;20026;-79
2023/04/20 02:37:29;;;;;;;5.75;2.80;;;6.00;80.50;;;;;;5004522;28;20092;-81
2023/04/20 02:39:54;;;;;;;4.97;2.80;;;6.00;80.90;;;;;;4998744;28;20505;-80
2023/04/20 02:42:20;;;;;;;5.70;2.63;;;6.00;82.40;;;;;;5022509;28;20128;-80
2023/04/20 02:44:45;;;;;;;8.02;2.90;;;6.00;83.40;;;;;;4996765;28;20057;-80
2023/04/20 02:47:11;;;;;;;6.57;2.80;;;6.10;84.90;;;;;;5015646;28;20033;-80
2023/04/20 02:49:37;;;;;;;7.32;3.42;;;6.10;85.90;;;;;;5014109;28;20029;-80
2023/04/20 02:52:06;;;;;;;3.83;2.63;;;6.10;87.80;;;;;;5000394;28;20029;-80
2023/04/20 02:54:31;;;;;;;5.60;3.20;;;6.00;90.40;;;;;;4989064;28;20029;-80
2023/04/20 02:56:57;;;;;;;7.75;3.33;;;6.10;91.50;;;;;;5016540;28;20041;-79
2023/04/20 02:59:23;;;;;;;7.20;3.53;;;6.10;93.60;;;;;;5005163;28;20032;-79
2023/04/20 03:01:49;;;;;;;5.63;3.22;;;6.10;94.90;;;;;;5004271;28;20579;-80
2023/04/20 03:04:14;;;;;;;9.52;4.13;;;6.10;95.20;;;;;;5006000;28;20025;-80
2023/04/20 03:06:41;;;;;;;7.13;3.42;;;5.90;96.70;;;;;;5014183;28;20412;-80
2023/04/20 03:09:07;;;;;;;13.07;3.83;;;5.90;98.40;;;;;;5016949;28;20034;-80
2023/04/20 03:11:33;;;;;;;7.55;3.35;;;6.00;99.20;;;;;;5030890;28;20525;-80
2023/04/20 03:13:58;;;;;;;6.82;3.70;;;5.90;98.80;;;;;;5014279;28;20033;-80
2023/04/20 03:16:24;;;;;;;7.30;4.03;;;5.90;98.50;;;;;;5004612;28;20596;-80
2023/04/20 03:18:50;;;;;;;5.93;2.88;;;5.80;99.30;;;;;;5000004;28;20486;-80
2023/04/20 03:21:15;;;;;;;4.13;3.22;;;5.90;99.90;;;;;;5005198;28;20113;-80
2023/04/20 03:23:41;;;;;;;6.43;3.20;;;5.90;99.90;;;;;;5026105;28;20073;-80
2023/04/20 03:26:06;;;;;;;12.07;4.63;;;5.90;99.90;;;;;;5006936;28;20141;-80
2023/04/20 03:28:32;;;;;;;7.05;4.43;;;5.90;99.90;;;;;;5000217;28;20181;-80
2023/04/20 03:30:59;;;;;;;7.47;4.80;;;5.80;99.90;;;;;;5031442;28;20099;-80
2023/04/20 03:33:26;;;;;;;10.40;4.95;;;5.80;99.90;;;;;;5006539;28;20474;-80
2023/04/20 03:35:52;;;;;;;9.77;4.97;;;5.80;99.90;;;;;;5003963;28;20049;-80
2023/04/20 03:38:17;;;;;;;8.45;4.68;;;5.90;99.90;;;;;;5017852;28;20034;-80
2023/04/20 03:40:49;;;;;;;6.70;4.60;;;5.80;99.90;;;;;;5031955;28;20048;-79
2023/04/20 03:43:14;;;;;;;10.93;4.35;;;5.80;99.90;;;;;;4990117;28;20400;-80
2023/04/20 03:45:40;;;;;;;5.75;3.80;;;6.00;99.90;;;;;;5023600;28;20207;-80
2023/04/20 03:48:06;;;;;;;10.13;5.68;;;6.10;99.90;;;;;;4996191;28;20041;-80
2023/04/20 03:50:31;;;;;;;10.68;5.18;;;6.00;99.90;;;;;;5002338;28;20501;-79
2023/04/20 03:52:58;;;;;;;8.10;5.13;;;6.10;99.90;;;;;;5003247;28;20040;-80
2023/04/20 03:55:23;;;;;;;7.25;5.18;;;6.10;99.90;;;;;;5007126;28;20167;-80
2023/04/20 03:57:49;;;;;;;9.75;4.45;;;6.10;99.90;;;;;;5006896;28;20651;-80
2023/04/20 04:00:15;;;;;;;7.38;5.45;;;6.60;99.90;;;;;;5007249;28;20040;-79
2023/04/20 04:02:40;;;;;;;9.02;5.20;;;6.30;99.90;;;;;;5020862;28;20049;-80
2023/04/20 04:05:06;;;;;;;7.70;5.00;;;6.30;99.90;;;;;;5001426;28;20045;-80
2023/04/20 04:07:33;;;;;;;10.30;4.82;;;6.30;99.90;;;;;;5008890;28;20528;-80
2023/04/20 04:09:58;;;;;;;14.50;4.78;;;6.30;99.90;;;;;;5020836;28;20559;-81
2023/04/20 04:12:24;;;;;;;7.28;4.47;;;6.30;99.90;;;;;;4985296;28;20045;-80
2023/04/20 04:14:49;;;;;;;5.82;4.57;;;6.20;99.90;;;;;;5031688;28;20113;-79
2023/04/20 04:17:15;;;;;;;12.40;5.25;;;6.20;99.90;;;;;;5001551;28;20029;-79
2023/04/20 04:19:42;;;;;;;10.85;5.40;;;6.30;99.90;;;;;;5017566;28;20729;-80
2023/04/20 04:22:08;;;;;;;10.60;4.68;;;6.40;99.90;;;;;;5028337;28;20029;-80
2023/04/20 04:24:33;;;;;;;9.23;5.00;;;6.30;99.90;;;;;;5023332;28;20112;-80
2023/04/20 04:27:01;;;;;;;8.57;4.65;;;6.30;99.90;;;;;;5003642;28;20038;-80
2023/04/20 04:29:26;;;;;;;9.85;5.45;;;6.40;99.90;;;;;;5006036;28;20428;-80
2023/04/20 04:31:52;;;;;;;13.20;4.88;;;6.30;99.90;;;;;;5017534;28;20037;-79
2023/04/20 04:34:19;;;;;;;8.98;5.28;;;6.40;99.90;;;;;;4994669;28;20033;-80
2023/04/20 04:36:44;;;;;;;8.70;5.00;;;6.90;99.90;;;;;;5000811;28;20061;-79
2023/04/20 04:39:11;;;;;;;7.18;4.75;;;6.30;99.90;;;;;;5004657;28;20057;-82
2023/04/20 04:41:36;;;;;;;9.95;4.95;;;6.30;99.90;;;;;;5001914;28;20424;-82
2023/04/20 04:44:02;;;;;;;10.55;4.78;;;6.30;99.90;;;;;;5018120;28;20026;-79
2023/04/20 04:46:28;;;;;;;9.13;4.45;;;6.40;99.90;;;;;;4987995;28;20113;-80
2023/04/20 04:48:55;;;;;;;8.70;4.82;;;6.50;99.90;;;;;;5015399;28;20442;-80
2023/04/20 04:51:20;;;;;;;9.27;4.80;;;6.50;99.90;;;;;;5004642;28;20026;-80
2023/04/20 04:53:48;;;;;;;9.18;4.53;;;6.50;99.90;;;;;;5012639;28;20066;-80
2023/04/20 04:56:13;;;;;;;7.28;4.82;;;6.80;99.90;;;;;;5000555;28;20045;-80
2023/04/20 04:58:39;;;;;;;11.13;5.30;;;6.50;99.90;;;;;;5018046;28;20719;-80
2023/04/20 05:01:05;;;;;;;6.55;4.93;;;6.60;99.90;;;;;;5020679;28;20499;-79
2023/04/20 05:03:30;;;;;;;9.30;4.72;;;6.60;99.90;;;;;;5011026;28;20174;-80
2023/04/20 05:05:56;;;;;;;8.30;4.95;;;6.60;99.90;;;;;;5030601;28;20516;-79
2023/04/20 05:08:23;;;;;;;7.90;4.88;;;6.60;99.90;;;;;;5021518;28;20024;-79
2023/04/20 05:10:49;;;;;;;6.97;4.68;;;6.70;99.90;;;;;;5019281;28;20069;-79
2023/04/20 05:13:14;;;;;;;9.30;5.10;;;6.70;99.90;;;;;;5021406;28;20049;-79
2023/04/20 05:15:40;;;;;;;9.75;4.75;;;6.60;99.90;;;;;;4998558;28;20038;-79
2023/04/20 05:18:05;;;;;;;7.05;4.63;;;6.60;99.90;;;;;;4999747;28;20058;-80
2023/04/20 05:20:31;;;;;;;9.38;4.82;;;6.70;99.90;;;;;;5019535;28;20029;-80
2023/04/20 05:22:57;;;;;;;8.13;4.72;;;6.70;99.90;;;;;;5002250;28;20243;-79
2023/04/20 05:25:22;;;;;;;8.13;4.65;;;6.80;99.90;;;;;;5004270;28;20033;-79
2023/04/20 05:27:48;;;;;;;9.70;5.20;;;6.70;99.90;;;;;;5020981;28;20498;-79
2023/04/20 05:30:14;;;;;;;9.10;4.80;;;6.80;99.90;;;;;;5014961;28;20153;-79
2023/04/20 05:32:39;;;;;;;7.38;4.85;;;6.80;99.90;;;;;;5017094;28;20080;-79
2023/04/20 05:35:05;;;;;;;11.02;6.30;;;6.80;99.90;;;;;;5009530;28;20518;-79
2023/04/20 05:37:32;;;;;;;8.73;4.43;;;6.80;99.90;;;;;;5026606;28;20030;-79
2023/04/20 05:39:57;;;;;;;5.88;4.93;;;6.90;99.90;;;;;;5015048;28;20037;-79
2023/04/20 05:42:23;;;;;;;9.27;6.18;;;6.90;99.90;;;;;;5021194;28;20413;-79
2023/04/20 05:44:48;;;;;;;8.25;5.38;;;6.90;99.90;;;;;;5030430;28;20045;-80
2023/04/20 05:47:14;;;;;;;8.75;4.60;;;6.90;99.90;;;;;;5013196;28;20504;-79
2023/04/20 05:49:40;;;;;;;8.93;5.57;;;6.90;99.90;;;;;;5021686;28;20030;-80
2023/04/20 05:52:06;;;;;;;9.82;4.68;;;7.00;99.90;;;;;;5031104;28;20033;-79
2023/04/20 05:54:31;;;;;;;11.30;5.97;;;7.00;99.90;;;;;;5020534;28;20042;-79
2023/04/20 05:56:57;;;;;;;7.35;4.43;;;7.00;99.90;;;;;;5029732;28;20413;-79
2023/04/20 05:59:23;;;;;;;7.07;4.68;;;6.90;99.90;;;;;;5014279;28;20497;-79
2023/04/20 06:01:49;;;;;;;13.60;5.20;;;6.90;99.90;;;;;;5004054;28;20030;-79
2023/04/20 06:04:14;;;;;;;10.25;5.63;;;6.90;99.90;;;;;;5021503;28;20040;-78
2023/04/20 06:06:40;;;;;;;16.85;6.10;;;6.90;99.90;;;;;;5019071;28;20115;-79
2023/04/20 06:09:05;;;;;;;10.40;6.57;;;6.90;99.90;;;;;;5035458;28;20533;-79
2023/04/20 06:11:31;;;;;;;7.65;5.60;;;6.90;99.90;;;;;;5031917;28;20043;-79
2023/04/20 06:13:57;;;;;;;8.52;5.40;;;6.90;99.90;;;;;;4998152;28;20040;-79
2023/04/20 06:16:22;;;;;;;9.40;5.80;;;6.90;99.90;;;;;;5026345;28;20041;-79
2023/04/20 06:18:48;;;;;;;7.75;5.57;;;6.90;99.90;;;;;;5021519;28;20040;-80
2023/04/20 06:21:14;;;;;;;10.55;6.65;;;7.00;99.90;;;;;;5001949;28;20055;-80
2023/04/20 06:23:40;;;;;;;12.05;6.20;;;7.10;99.90;;;;;;5032081;28;20033;-79
2023/04/20 06:26:07;;;;;;;9.07;6.30;;;7.20;99.90;;;;;;5031020;28;20044;-79
2023/04/20 06:28:34;;;;;;;10.30;6.20;;;7.10;99.90;;;;;;5019101;28;20092;-79
2023/04/20 06:31:00;;;;;;;10.65;6.55;;;7.20;99.90;;;;;;5016821;28;20073;-78
2023/04/20 06:33:26;;;;;;;8.48;5.93;;;7.20;99.90;;;;;;5011274;28;20077;-79
2023/04/20 06:35:53;;;;;;;12.38;6.93;;;7.20;99.90;;;;;;5022000;28;20132;-79
2023/04/20 06:38:19;;;;;;;13.55;6.90;;;7.10;99.90;;;;;;5017135;28;20056;-79
2023/04/20 06:40:45;;;;;;;8.75;7.00;;;7.10;99.90;;;;;;5000669;28;20487;-79
2023/04/20 06:43:10;;;;;;;9.38;6.90;;;7.10;99.90;;;;;;5018056;28;20036;-79
2023/04/20 06:45:36;;;;;;;7.47;6.55;;;7.10;99.90;;;;;;5019855;28;20564;-79
2023/04/20 06:48:02;;;;;;;8.48;6.10;;;7.10;99.90;;;;;;5030322;28;20107;-78
2023/04/20 06:50:27;;;;;;;10.10;5.80;;;7.10;99.90;;;;;;5019545;28;20036;-79
2023/04/20 06:52:53;;;;;;;10.93;6.82;;;7.10;99.90;;;;;;5018106;28;20494;-78
2023/04/20 06:55:18;;;;;;;13.82;7.88;;;7.10;99.90;;;;;;5016198;28;20045;-78
2023/04/20 06:57:44;;;;;;;10.95;7.93;;;7.00;99.90;;;;;;5014141;28;20058;-79
2023/04/20 07:00:10;;;;;;;11.18;7.47;;;7.00;99.90;;;;;;5014087;28;20197;-80
2023/04/20 07:02:43;;;;;;;12.15;8.05;;;6.90;99.90;;;;;;5026649;28;20030;-79
2023/04/20 07:05:09;;;;;;;14.63;8.60;;;7.00;99.90;;;;;;5004122;28;20041;-79
2023/04/20 07:07:34;;;;;;;11.27;8.40;;;7.00;99.90;;;;;;5034326;28;20037;-79
2023/04/20 07:10:00;;;;;;;11.20;7.82;;;7.00;99.90;;;;;;5025174;28;20030;-78
2023/04/20 07:12:25;;;;;;;9.75;8.18;;;7.20;99.90;;;;;;5008796;28;20506;-78
2023/04/20 07:14:51;;;;;;;13.07;8.68;;;7.30;99.90;;;;;;5015364;28;20042;-79
2023/04/20 07:17:17;;;;;;;13.68;8.10;;;7.30;99.90;;;;;;5018526;28;20385;-79
2023/04/20 07:19:42;;;;;;;11.02;6.88;;;7.40;99.90;;;;;;5014868;28;20025;-79
2023/04/20 07:22:08;;;;;;;10.70;6.90;;;7.40;99.90;;;;;;5016613;28;20073;-79
2023/04/20 07:24:34;;;;;;;10.80;7.35;;;7.50;99.90;;;;;;5003489;28;20481;-79
2023/04/20 07:27:00;;;;;;;8.93;7.40;;;7.60;99.90;;;;;;5032575;28;20030;-79
2023/04/20 07:29:25;;;;;;;11.02;7.75;;;7.70;99.90;;;;;;5019796;28;20033;-79
2023/04/20 07:31:51;;;;;;;10.30;7.15;;;7.80;99.90;;;;;;5018626;28;20022;-79
2023/04/20 07:34:17;;;;;;;9.77;8.23;;;7.80;99.90;;;;;;5008641;28;20033;-80
2023/04/20 07:36:42;;;;;;;15.38;7.68;;;7.80;99.90;;;;;;4998984;28;20333;-79
2023/04/20 07:39:08;;;;;;;12.05;7.68;;;7.90;99.90;;;;;;5030656;28;20108;-79
2023/04/20 07:41:34;;;;;;;11.80;8.30;;;7.90;99.90;;;;;;5032107;28;20036;-79
2023/04/20 07:43:59;;;;;;;14.13;8.45;;;7.90;99.90;;;;;;5032985;28;20250;-79
2023/04/20 07:46:27;;;;;;;10.70;7.13;;;7.90;99.90;;;;;;5006663;28;20037;-80
2023/04/20 07:48:52;;;;;;;11.57;8.00;;;7.90;99.90;;;;;;5018130;28;20044;-79
2023/04/20 07:51:18;;;;;;;13.07;7.30;;;8.00;99.90;;;;;;5007013;28;20021;-79
2023/04/20 07:53:43;;;;;;;11.23;6.80;;;8.00;99.90;;;;;;5018537;28;20025;-78
2023/04/20 07:56:09;;;;;;;9.77;7.05;;;8.00;99.90;;;;;;5002282;28;20467;-78
2023/04/20 07:58:37;;;;;;;12.27;8.93;;;8.10;99.90;;;;;;5034084;28;20438;-79
2023/04/20 08:01:03;;;;;;;11.60;7.60;;;8.10;99.90;;;;;;5004965;28;20045;-79
2023/04/20 08:03:29;;;;;;;12.77;7.88;;;8.20;99.90;;;;;;5015133;28;20086;-79
2023/04/20 08:05:54;;;;;;;10.98;6.95;;;8.20;99.90;;;;;;5029011;28;20140;-79
2023/04/20 08:08:20;;;;;;;9.63;7.45;;;8.20;99.90;;;;;;5022600;28;20049;-79
2023/04/20 08:10:45;;;;;;;12.10;7.18;;;8.20;99.90;;;;;;5020400;28;20523;-79
2023/04/20 08:13:11;;;;;;;11.52;7.32;;;8.30;99.90;;;;;;5017696;28;20449;-80
2023/04/20 08:15:36;;;;;;;9.60;6.75;;;8.30;99.90;;;;;;4994709;28;20509;-78
2023/04/20 08:18:02;;;;;;;9.43;7.75;;;8.30;99.90;;;;;;5020072;28;20075;-79
2023/04/20 08:20:27;;;;;;;10.07;8.05;;;8.40;99.90;;;;;;5006438;28;20140;-80
2023/04/20 08:22:53;;;;;;;9.90;7.13;;;8.30;99.90;;;;;;5019083;28;20048;-79
2023/04/20 08:25:19;;;;;;;12.30;7.50;;;8.40;99.90;;;;;;5019302;28;20030;-79
2023/04/20 08:27:44;;;;;;;9.98;7.57;;;8.40;99.90;;;;;;5034773;28;20034;-79
2023/04/20 08:30:10;;;;;;;10.82;7.00;;;8.40;99.90;;;;;;5034598;28;20037;-79
2023/04/20 08:32:36;;;;;;;8.55;6.70;;;8.40;99.90;;;;;;5016919;28;20155;-79
2023/04/20 08:35:03;;;;;;;11.38;6.88;;;8.50;99.90;;;;;;5026806;28;20121;-79
2023/04/20 08:37:28;;;;;;;13.05;6.50;;;8.60;99.90;;;;;;5020030;28;20041;-79
2023/04/20 08:39:54;;;;;;;9.75;6.38;;;8.70;99.90;;;;;;5030171;28;20394;-79
2023/04/20 08:42:19;;;;;;;8.75;6.80;;;8.80;99.90;;;;;;5022669;28;20117;-79
2023/04/20 08:44:45;;;;;;;9.13;6.35;;;8.90;99.90;;;;;;5034087;28;20033;-80
2023/04/20 08:47:11;;;;;;;8.43;6.68;;;8.90;99.90;;;;;;5002261;28;20029;-79
2023/04/20 08:49:38;;;;;;;8.73;6.57;;;8.90;99.90;;;;;;5019256;28;20036;-79
2023/04/20 08:52:04;;;;;;;11.43;8.23;;;9.00;99.90;;;;;;5035220;28;20034;-78
2023/04/20 08:54:29;;;;;;;16.35;9.05;;;9.00;99.90;;;;;;5020631;28;20030;-80
2023/04/20 08:56:55;;;;;;;10.50;9.02;;;8.90;99.90;;;;;;5028666;28;20062;-79
2023/04/20 08:59:21;;;;;;;13.73;10.00;;;8.90;99.90;;;;;;5036703;28;20124;-79
2023/04/20 09:01:46;;;;;;;15.52;9.45;;;8.70;99.90;;;;;;4993583;28;20049;-78
2023/04/20 09:04:20;;;;;;;12.15;9.48;;;8.80;99.90;;;;;;5032765;28;20390;-78
2023/04/20 09:06:46;;;;;;;13.00;9.90;;;8.80;99.90;;;;;;5020514;28;20371;-78
2023/04/20 09:09:12;;;;;;;10.52;8.25;;;8.90;99.90;;;;;;5016009;28;20038;-78
2023/04/20 09:11:37;;;;;;;12.18;8.07;;;9.00;99.90;;;;;;5018666;28;20037;-78
2023/04/20 09:14:09;;;;;;;9.35;7.00;;;9.10;99.90;;;;;;5015178;28;20029;-78
2023/04/20 09:16:35;;;;;;;7.82;6.32;;;9.30;99.90;;;;;;5011507;28;20045;-79
2023/04/20 09:19:01;;;;;;;7.05;5.38;;;9.60;99.90;;;;;;5014055;28;20062;-77
2023/04/20 09:21:27;;;;;;;7.43;6.07;;;9.80;99.90;;;;;;5002562;28;20061;-79
2023/04/20 09:23:59;;;;;;;10.20;5.75;;;10.10;99.90;;;;;;5014280;28;20041;-77
2023/04/20 09:26:25;;;;;;;6.78;5.63;;;10.50;99.90;;;;;;5000529;28;20037;-78
2023/04/20 09:28:50;;;;;;;7.68;5.93;;;10.70;99.90;;;;;;5032605;28;20042;-80
2023/04/20 09:31:20;;;;;;;6.43;5.75;;;11.10;99.90;;;;;;5007540;28;20067;-80
2023/04/20 09:34:02;;;;;;;6.32;5.50;;;11.30;99.90;;;;;;5015884;28;20081;-79
2023/04/20 09:36:45;;;;;;;8.07;5.53;;;11.40;99.90;;;;;;5032540;28;20125;-79
2023/04/20 09:39:18;;;;;;;9.13;5.32;;;11.40;99.90;;;;;;5010389;28;20033;-79
2023/04/20 09:41:43;;;;;;;7.45;6.18;;;11.50;99.90;;;;;;5018430;28;20041;-79
2023/04/20 09:44:09;;;;;;;8.95;6.75;;;11.60;99.90;;;;;;5002434;28;20038;-79
2023/04/20 09:46:36;;;;;;;8.18;7.13;;;11.50;99.90;;;;;;5030481;28;20160;-79
2023/04/20 09:49:03;;;;;;;8.88;7.35;;;11.50;99.90;;;;;;5020105;28;20046;-79
2023/04/20 09:51:30;;;;;;;12.25;8.15;;;11.40;99.90;;;;;;5020928;28;20476;-79
2023/04/20 09:53:57;;;;;;;8.65;7.75;;;11.40;99.90;;;;;;5006659;28;20042;-79
2023/04/20 09:56:22;;;;;;;7.78;6.78;;;11.50;99.90;;;;;;5023633;28;20496;-79
2023/04/20 09:58:48;;;;;;;10.20;6.38;;;11.60;99.90;;;;;;5017677;28;20048;-79
2023/04/20 10:01:14;;;;;;;9.25;5.82;;;11.90;99.90;;;;;;5020404;28;20037;-78
2023/04/20 10:03:42;;;;;;;7.15;5.80;;;11.80;99.90;;;;;;5016259;28;20135;-79
2023/04/20 10:06:27;;;;;;;6.93;5.97;;;12.10;99.90;;;;;;5023669;28;20034;-79
2023/04/20 10:08:53;;;;;;;7.18;5.20;;;12.20;99.90;;;;;;5012745;28;20033;-79
2023/04/20 10:11:36;;;;;;;6.93;5.10;;;12.30;99.90;;;;;;5019497;28;20448;-77
2023/04/20 10:14:23;;;;;;;9.95;5.75;;;12.40;99.90;;;;;;5025763;28;20698;-79
2023/04/20 10:17:00;;;;;;;8.27;7.05;;;12.40;99.90;;;;;;4986530;28;20221;-79
2023/04/20 10:19:41;;;;;;;7.22;6.40;;;12.60;99.90;;;;;;5001336;28;20025;-79
2023/04/20 10:22:08;;;;;;;7.32;6.07;;;12.70;99.90;;;;;;5015711;28;20046;-79
2023/04/20 10:24:34;;;;;;;7.07;5.00;;;12.70;99.90;;;;;;5024920;28;20503;-79
2023/04/20 10:27:01;;;;;;;4.60;4.20;;;12.70;99.90;;;;;;5016106;28;20087;-80
2023/04/20 10:29:27;;;;;;;5.78;4.13;;;12.60;99.90;;;;;;5001145;28;20033;-78
2023/04/20 10:31:53;;;;;;;5.13;4.57;;;12.70;99.90;;;;;;5032561;28;20029;-80
2023/04/20 10:34:29;;;;;;;5.32;4.78;;;12.70;99.90;;;;;;5003976;28;20733;-79
2023/04/20 10:37:05;;;;;;;5.28;4.47;;;12.90;99.90;;;;;;5017722;28;20141;-79
2023/04/20 10:39:31;;;;;;;6.28;4.93;;;12.90;99.90;;;;;;5000307;28;20028;-79
2023/04/20 10:41:57;;;;;;;4.57;4.13;;;13.00;99.90;;;;;;5018467;28;20026;-79
2023/04/20 10:44:26;;;;;;;4.60;4.20;;;13.10;99.90;;;;;;5003560;28;20442;-79
2023/04/20 10:46:51;;;;;;;4.93;4.18;;;13.20;99.90;;;;;;5008629;28;20038;-79
2023/04/20 10:49:17;;;;;;;4.43;3.50;;;13.10;99.90;;;;;;5018600;28;20089;-79
2023/04/20 10:51:49;;;;;;;4.72;3.80;;;13.30;99.90;;;;;;5005355;28;20080;-79
2023/04/20 10:54:14;;;;;;;5.03;4.53;;;13.70;99.90;;;;;;5014848;28;20029;-79
2023/04/20 10:56:44;;;;;;;5.68;4.43;;;14.00;99.90;;;;;;5013007;28;20379;-79
2023/04/20 10:59:11;;;;;;;4.97;3.97;;;14.00;99.90;;;;;;5002972;28;20433;-79
2023/04/20 11:01:37;;;;;;;4.63;3.75;;;14.00;99.90;;;;;;5013107;28;20029;-79
2023/04/20 11:04:03;;;;;;;5.13;4.07;;;13.90;99.90;;;;;;5000511;28;20454;-79
2023/04/20 11:06:30;;;;;;;4.55;3.20;;;13.80;99.90;;;;;;5000292;28;20394;-80
2023/04/20 11:08:55;;;;;;;4.45;3.58;;;13.80;99.90;;;;;;5015276;28;20037;-79
2023/04/20 11:11:28;;;;;;;4.30;3.90;;;13.80;99.90;;;;;;5004447;28;20725;-79
2023/04/20 11:14:10;;;;;;;4.40;4.00;;;13.90;99.90;;;;;;5013406;28;20394;-79
2023/04/20 11:16:35;;;;;;;4.93;4.43;;;13.90;99.90;;;;;;5019588;28;20038;-79
2023/04/20 11:19:02;;;;;;;4.85;4.35;;;13.80;99.90;;;;;;5029872;28;20034;-79
2023/04/20 11:21:40;;;;;;;4.55;3.72;;;13.80;99.90;;;;;;5019578;28;20031;-79
2023/04/20 11:24:17;;;;;;;3.67;3.28;;;13.80;99.90;;;;;;5011705;28;20038;-79
2023/04/20 11:26:43;;;;;;;4.10;3.20;;;14.00;99.90;;;;;;5014269;28;20520;-79
2023/04/20 11:29:09;;;;;;;3.72;3.42;;;14.10;99.90;;;;;;5017532;28;20053;-79
2023/04/20 11:31:35;;;;;;;5.28;4.03;;;14.30;99.90;;;;;;5013594;28;20045;-79
2023/04/20 11:34:02;;;;;;;5.13;3.88;;;14.30;99.90;;;;;;5016845;28;20029;-79
2023/04/20 11:36:28;;;;;;;4.10;3.70;;;14.50;99.90;;;;;;5013591;28;20049;-79
2023/04/20 11:38:54;;;;;;;3.83;3.50;;;14.50;99.90;;;;;;5011237;28;20079;-78
2023/04/20 11:41:20;;;;;;;5.13;3.90;;;14.30;99.70;;;;;;5012585;28;20041;-79
2023/04/20 11:43:47;;;;;;;3.80;3.40;;;14.30;99.60;;;;;;5015204;28;20120;-79
2023/04/20 11:46:17;;;;;;;4.90;4.25;;;14.30;99.80;;;;;;5018628;28;20029;-78
2023/04/20 11:48:42;;;;;;;4.00;3.45;;;14.50;99.30;;;;;;5015200;28;20042;-78
2023/04/20 11:51:08;;;;;;;5.60;3.15;;;14.60;98.60;;;;;;4325220;28;9999913;-79
2023/04/20 11:53:33;;;;;;;3.53;2.92;;;14.60;99.20;;;;;;5016595;28;20704;-79
2023/04/20 11:55:59;;;;;;;4.10;2.88;;;14.60;99.80;;;;;;5029182;28;20029;-78
2023/04/20 11:58:25;;;;;;;2.95;2.65;;;14.70;99.90;;;;;;5020208;28;20037;-78
2023/04/20 12:00:50;;;;;;;4.78;2.78;;;15.00;99.90;;;;;;5027740;28;20462;-78
2023/04/20 12:03:16;;;;;;;2.95;2.70;;;15.00;97.20;;;;;;5002747;28;20033;-78
2023/04/20 12:05:42;;;;;;;3.03;2.70;;;15.10;95.90;;;;;;5028670;28;20050;-80
2023/04/20 12:08:08;;;;;;;2.85;2.55;;;15.20;96.60;;;;;;5016945;28;20065;-78
2023/04/20 12:10:33;;;;;;;2.97;2.03;;;15.30;96.60;;;;;;5018874;28;20156;-78
2023/04/20 12:13:00;;;;;;;2.75;2.00;;;15.20;96.80;;;;;;4995982;28;20067;-79
2023/04/20 12:15:26;;;;;;;2.78;2.13;;;15.40;96.20;;;;;;4977730;28;20312;-79
2023/04/20 12:17:52;;;;;;;2.72;2.17;;;15.70;96.20;;;;;;5001948;28;20218;-78
2023/04/20 12:20:17;;;;;;;3.33;2.45;;;16.00;95.90;;;;;;5003395;28;20029;-78
2023/04/20 12:22:43;;;;;;;5.55;2.80;;;16.20;96.30;;;;;;5001872;28;20973;-78
2023/04/20 12:25:08;;;;;;;4.13;2.65;;;16.40;95.30;;;;;;5009988;28;20057;-78
2023/04/20 12:27:34;;;;;;;3.92;3.28;;;16.50;95.80;;;;;;5013698;28;20172;-78
2023/04/20 12:30:00;;;;;;;3.97;2.95;;;17.10;94.70;;;;;;5014862;28;20124;-78
2023/04/20 12:32:25;;;;;;;3.40;3.10;;;17.20;93.20;;;;;;5001272;28;20040;-78
2023/04/20 12:34:51;;;;;;;3.40;3.10;;;17.20;94.10;;;;;;5020656;28;20083;-78
2023/04/20 12:37:17;;;;;;;3.58;3.15;;;16.90;94.10;;;;;;5006719;28;20059;-78
2023/04/20 12:39:42;;;;;;;5.00;3.53;;;17.00;94.60;;;;;;5003606;28;20041;-77
2023/04/20 12:42:08;;;;;;;6.25;3.83;;;17.00;94.40;;;;;;5017024;28;20040;-76
2023/04/20 12:44:33;;;;;;;5.30;3.97;;;16.90;93.80;;;;;;5021605;28;20494;-77
2023/04/20 12:46:59;;;;;;;5.15;4.43;;;17.00;93.90;;;;;;5005704;28;20460;-77